createdAt,value
2018-12-24T00:27:52.553Z,1013.72
2018-12-24T00:27:53.126Z,1013.70
2018-12-24T00:27:53.726Z,1013.71
2018-12-24T00:27:54.327Z,1013.68
2018-12-24T00:27:54.926Z,1013.69
2018-12-24T00:27:55.525Z,1013.65
2018-12-24T00:28:50.081Z,1013.74
2018-12-24T00:28:50.675Z,1013.72
2018-12-24T00:28:51.275Z,1013.70
2018-12-24T00:28:51.875Z,1013.67
2018-12-24T00:28:52.475Z,1013.69
2018-12-24T00:28:53.073Z,1013.69
2018-12-24T00:28:53.674Z,1013.68
2018-12-24T00:29:47.732Z,1013.74
2018-12-24T00:29:48.327Z,1013.71
2018-12-24T00:29:48.929Z,1013.75
2018-12-24T00:29:49.528Z,1013.67
2018-12-24T00:29:50.126Z,1013.70
2018-12-24T00:29:50.732Z,1013.68
2018-12-24T00:29:51.327Z,1013.67
2018-12-24T00:30:45.406Z,1013.76
2018-12-24T00:30:45.981Z,1013.78
2018-12-24T00:30:46.579Z,1013.71
2018-12-24T00:30:47.179Z,1013.72
2018-12-24T00:30:47.778Z,1013.71
2018-12-24T00:30:48.380Z,1013.68
2018-12-24T00:30:48.978Z,1013.73
2018-12-24T00:31:43.035Z,1013.80
2018-12-24T00:31:43.632Z,1013.78
2018-12-24T00:31:44.232Z,1013.78
2018-12-24T00:31:44.832Z,1013.75
2018-12-24T00:31:45.433Z,1013.76
2018-12-24T00:31:46.035Z,1013.74
2018-12-24T00:31:46.632Z,1013.75
2018-12-24T00:32:40.688Z,1013.82
2018-12-24T00:32:41.284Z,1013.82
2018-12-24T00:32:41.884Z,1013.77
2018-12-24T00:32:42.485Z,1013.76
2018-12-24T00:32:43.084Z,1013.77
2018-12-24T00:32:43.685Z,1013.78
2018-12-24T00:32:44.285Z,1013.80
2018-12-24T00:33:38.338Z,1013.83
2018-12-24T00:33:38.936Z,1013.78
2018-12-24T00:33:39.536Z,1013.77
2018-12-24T00:33:40.135Z,1013.82
2018-12-24T00:33:40.735Z,1013.80
2018-12-24T00:33:41.336Z,1013.82
2018-12-24T00:33:41.935Z,1013.78
2018-12-24T00:34:35.991Z,1013.89
2018-12-24T00:34:36.588Z,1013.84
2018-12-24T00:34:37.188Z,1013.85
2018-12-24T00:34:37.788Z,1013.86
2018-12-24T00:34:38.389Z,1013.82
2018-12-24T00:34:38.987Z,1013.82
2018-12-24T00:34:39.586Z,1013.84
2018-12-24T00:35:33.668Z,1013.93
2018-12-24T00:35:34.240Z,1013.91
2018-12-24T00:35:34.839Z,1013.89
2018-12-24T00:35:35.440Z,1013.89
2018-12-24T00:35:36.039Z,1013.88
2018-12-24T00:35:36.643Z,1013.85
2018-12-24T00:35:37.239Z,1013.86
2018-12-24T00:36:31.293Z,1013.95
2018-12-24T00:36:31.892Z,1013.88
2018-12-24T00:36:32.492Z,1013.90
2018-12-24T00:36:33.092Z,1013.88
2018-12-24T00:36:33.693Z,1013.90
2018-12-24T00:36:34.292Z,1013.88
2018-12-24T00:36:34.892Z,1013.88
2018-12-24T00:37:28.951Z,1013.95
2018-12-24T00:37:29.547Z,1013.92
2018-12-24T00:37:30.147Z,1013.93
2018-12-24T00:37:30.747Z,1013.90
2018-12-24T00:37:31.349Z,1013.90
2018-12-24T00:37:31.947Z,1013.92
2018-12-24T00:37:32.546Z,1013.92
2018-12-24T00:38:26.605Z,1013.99
2018-12-24T00:38:27.197Z,1013.94
2018-12-24T00:38:27.795Z,1013.94
2018-12-24T00:38:28.396Z,1013.91
2018-12-24T00:38:28.998Z,1013.90
2018-12-24T00:38:29.595Z,1013.86
2018-12-24T00:38:30.195Z,1013.89
2018-12-24T00:39:24.251Z,1014.02
2018-12-24T00:39:24.848Z,1014.02
2018-12-24T00:39:25.448Z,1013.96
2018-12-24T00:39:26.048Z,1014.01
2018-12-24T00:39:26.647Z,1013.95
2018-12-24T00:39:27.246Z,1013.96
2018-12-24T00:39:27.849Z,1013.97
2018-12-24T00:40:21.927Z,1014.03
2018-12-24T00:40:22.503Z,1014.06
2018-12-24T00:40:23.100Z,1014.04
2018-12-24T00:40:23.702Z,1013.97
2018-12-24T00:40:24.299Z,1014.00
2018-12-24T00:40:24.900Z,1013.95
2018-12-24T00:40:25.500Z,1013.99
2018-12-24T00:41:19.559Z,1014.02
2018-12-24T00:41:20.152Z,1014.03
2018-12-24T00:41:20.753Z,1013.98
2018-12-24T00:41:21.352Z,1014.02
2018-12-24T00:41:21.950Z,1013.99
2018-12-24T00:41:22.551Z,1013.99
2018-12-24T00:41:23.150Z,1013.99
2018-12-24T00:42:17.208Z,1014.10
2018-12-24T00:42:17.804Z,1014.07
2018-12-24T00:42:18.403Z,1014.05
2018-12-24T00:42:19.005Z,1014.04
2018-12-24T00:42:19.603Z,1014.04
2018-12-24T00:42:20.205Z,1014.06
2018-12-24T00:42:20.802Z,1014.05
2018-12-24T00:43:14.859Z,1014.05
2018-12-24T00:43:15.455Z,1014.05
2018-12-24T00:43:16.057Z,1014.02
2018-12-24T00:43:16.656Z,1014.02
2018-12-24T00:43:17.254Z,1014.03
2018-12-24T00:43:17.853Z,1014.02
2018-12-24T00:43:18.454Z,1014.01
2018-12-24T00:44:12.509Z,1014.07
2018-12-24T00:44:13.106Z,1014.05
2018-12-24T00:44:13.708Z,1014.03
2018-12-24T00:44:14.308Z,1014.04
2018-12-24T00:44:14.907Z,1014.02
2018-12-24T00:44:15.506Z,1014.03
2018-12-24T00:44:16.106Z,1014.00
2018-12-24T00:45:10.188Z,1014.08
2018-12-24T00:45:10.759Z,1014.08
2018-12-24T00:45:11.379Z,1014.06
2018-12-24T00:45:11.958Z,1014.02
2018-12-24T00:45:12.564Z,1014.05
2018-12-24T00:45:13.158Z,1014.06
2018-12-24T00:45:13.758Z,1014.06
2018-12-24T00:46:07.814Z,1014.13
2018-12-24T00:46:08.413Z,1014.11
2018-12-24T00:46:09.009Z,1014.10
2018-12-24T00:46:09.615Z,1014.12
2018-12-24T00:46:10.214Z,1014.09
2018-12-24T00:46:10.813Z,1014.10
2018-12-24T00:46:11.409Z,1014.10
2018-12-24T00:47:05.465Z,1014.16
2018-12-24T00:47:06.064Z,1014.19
2018-12-24T00:47:06.664Z,1014.18
2018-12-24T00:47:07.264Z,1014.16
2018-12-24T00:47:07.861Z,1014.14
2018-12-24T00:47:08.462Z,1014.15
2018-12-24T00:47:09.062Z,1014.13
2018-12-24T00:48:03.115Z,1014.14
2018-12-24T00:48:03.715Z,1014.17
2018-12-24T00:48:04.314Z,1014.15
2018-12-24T00:48:04.916Z,1014.16
2018-12-24T00:48:05.513Z,1014.13
2018-12-24T00:48:06.114Z,1014.14
2018-12-24T00:48:06.714Z,1014.09
2018-12-24T00:49:00.772Z,1014.21
2018-12-24T00:49:01.368Z,1014.19
2018-12-24T00:49:01.966Z,1014.16
2018-12-24T00:49:02.566Z,1014.15
2018-12-24T00:49:03.164Z,1014.14
2018-12-24T00:49:03.767Z,1014.14
2018-12-24T00:49:04.364Z,1014.12
2018-12-24T00:49:58.420Z,1014.16
2018-12-24T00:49:59.022Z,1014.15
2018-12-24T00:49:59.617Z,1014.17
2018-12-24T00:50:00.217Z,1014.17
2018-12-24T00:50:00.817Z,1014.15
2018-12-24T00:50:01.417Z,1014.11
2018-12-24T00:50:02.020Z,1014.13
2018-12-24T00:50:56.099Z,1014.21
2018-12-24T00:50:56.668Z,1014.18
2018-12-24T00:50:57.270Z,1014.19
2018-12-24T00:50:57.869Z,1014.15
2018-12-24T00:50:58.470Z,1014.19
2018-12-24T00:50:59.068Z,1014.17
2018-12-24T00:50:59.673Z,1014.14
2018-12-24T00:51:53.723Z,1014.23
2018-12-24T00:51:54.322Z,1014.19
2018-12-24T00:51:54.920Z,1014.20
2018-12-24T00:51:55.522Z,1014.19
2018-12-24T00:51:56.120Z,1014.14
2018-12-24T00:51:56.726Z,1014.18
2018-12-24T00:51:57.320Z,1014.17
2018-12-24T00:52:51.375Z,1014.25
2018-12-24T00:52:51.986Z,1014.21
2018-12-24T00:52:52.573Z,1014.17
2018-12-24T00:52:53.173Z,1014.17
2018-12-24T00:52:53.773Z,1014.19
2018-12-24T00:52:54.373Z,1014.19
2018-12-24T00:52:54.974Z,1014.17
2018-12-24T00:53:49.027Z,1014.24
2018-12-24T00:53:49.623Z,1014.25
2018-12-24T00:53:50.248Z,1014.24
2018-12-24T00:53:50.824Z,1014.22
2018-12-24T00:53:51.427Z,1014.19
2018-12-24T00:53:52.026Z,1014.20
2018-12-24T00:53:52.623Z,1014.20
2018-12-24T00:54:46.680Z,1014.31
2018-12-24T00:54:47.277Z,1014.28
2018-12-24T00:54:47.877Z,1014.29
2018-12-24T00:54:48.476Z,1014.24
2018-12-24T00:54:49.075Z,1014.25
2018-12-24T00:54:49.676Z,1014.25
2018-12-24T00:54:50.278Z,1014.25
2018-12-24T00:55:45.283Z,1014.33
2018-12-24T00:55:45.853Z,1014.31
2018-12-24T00:55:46.464Z,1014.29
2018-12-24T00:55:47.048Z,1014.29
2018-12-24T00:55:47.648Z,1014.26
2018-12-24T00:55:48.247Z,1014.25
2018-12-24T00:56:42.803Z,1014.34
2018-12-24T00:56:43.400Z,1014.31
2018-12-24T00:56:44.001Z,1014.28
2018-12-24T00:56:44.602Z,1014.28
2018-12-24T00:56:45.198Z,1014.26
2018-12-24T00:56:45.798Z,1014.29
2018-12-24T00:56:46.399Z,1014.33
2018-12-24T00:57:40.454Z,1014.35
2018-12-24T00:57:41.053Z,1014.33
2018-12-24T00:57:41.651Z,1014.30
2018-12-24T00:57:42.253Z,1014.33
2018-12-24T00:57:42.850Z,1014.32
2018-12-24T00:57:43.449Z,1014.30
2018-12-24T00:57:44.051Z,1014.31
2018-12-24T00:58:38.106Z,1014.35
2018-12-24T00:58:38.703Z,1014.33
2018-12-24T00:58:39.304Z,1014.32
2018-12-24T00:58:39.902Z,1014.31
2018-12-24T00:58:40.515Z,1014.28
2018-12-24T00:58:41.103Z,1014.28
2018-12-24T00:58:41.701Z,1014.28
2018-12-24T00:59:35.756Z,1014.37
2018-12-24T00:59:36.355Z,1014.31
2018-12-24T00:59:36.956Z,1014.34
2018-12-24T00:59:37.553Z,1014.35
2018-12-24T00:59:38.153Z,1014.36
2018-12-24T00:59:38.753Z,1014.36
2018-12-24T00:59:39.358Z,1014.32
2018-12-24T01:00:33.410Z,1014.39
2018-12-24T01:00:34.006Z,1014.39
2018-12-24T01:00:34.606Z,1014.36
2018-12-24T01:00:35.207Z,1014.37
2018-12-24T01:00:35.809Z,1014.37
2018-12-24T01:00:36.409Z,1014.39
2018-12-24T01:00:37.005Z,1014.39
2018-12-24T01:01:31.092Z,1014.41
2018-12-24T01:01:31.658Z,1014.37
2018-12-24T01:01:32.258Z,1014.40
2018-12-24T01:01:32.860Z,1014.37
2018-12-24T01:01:33.458Z,1014.38
2018-12-24T01:01:34.059Z,1014.36
2018-12-24T01:01:34.658Z,1014.41
2018-12-24T01:02:28.712Z,1014.50
2018-12-24T01:02:29.310Z,1014.46
2018-12-24T01:02:29.910Z,1014.44
2018-12-24T01:02:30.510Z,1014.44
2018-12-24T01:02:31.109Z,1014.45
2018-12-24T01:02:31.712Z,1014.46
2018-12-24T01:02:32.308Z,1014.44
2018-12-24T01:03:26.364Z,1014.54
2018-12-24T01:03:26.962Z,1014.52
2018-12-24T01:03:27.564Z,1014.50
2018-12-24T01:03:28.162Z,1014.49
2018-12-24T01:03:28.760Z,1014.52
2018-12-24T01:03:29.361Z,1014.50
2018-12-24T01:03:29.961Z,1014.48
2018-12-24T01:04:24.016Z,1014.55
2018-12-24T01:04:24.615Z,1014.55
2018-12-24T01:04:25.215Z,1014.53
2018-12-24T01:04:25.816Z,1014.51
2018-12-24T01:04:26.415Z,1014.54
2018-12-24T01:04:27.015Z,1014.50
2018-12-24T01:04:27.614Z,1014.54
2018-12-24T01:05:21.666Z,1014.56
2018-12-24T01:05:22.264Z,1014.57
2018-12-24T01:05:22.869Z,1014.56
2018-12-24T01:05:23.465Z,1014.54
2018-12-24T01:05:24.064Z,1014.56
2018-12-24T01:05:24.665Z,1014.51
2018-12-24T01:05:25.264Z,1014.51
2018-12-24T01:06:19.409Z,1014.57
2018-12-24T01:06:19.915Z,1014.57
2018-12-24T01:06:20.516Z,1014.60
2018-12-24T01:06:21.115Z,1014.55
2018-12-24T01:06:21.715Z,1014.58
2018-12-24T01:06:22.314Z,1014.56
2018-12-24T01:06:22.915Z,1014.53
2018-12-24T01:07:17.114Z,1014.61
2018-12-24T01:07:17.567Z,1014.62
2018-12-24T01:07:18.167Z,1014.60
2018-12-24T01:07:18.769Z,1014.59
2018-12-24T01:07:19.366Z,1014.59
2018-12-24T01:07:19.965Z,1014.58
2018-12-24T01:07:20.565Z,1014.59
2018-12-24T01:08:14.623Z,1014.63
2018-12-24T01:08:15.220Z,1014.66
2018-12-24T01:08:15.820Z,1014.61
2018-12-24T01:08:16.421Z,1014.63
2018-12-24T01:08:17.022Z,1014.62
2018-12-24T01:08:17.619Z,1014.60
2018-12-24T01:08:18.225Z,1014.62
2018-12-24T01:09:12.274Z,1014.64
2018-12-24T01:09:12.871Z,1014.67
2018-12-24T01:09:13.471Z,1014.64
2018-12-24T01:09:14.072Z,1014.64
2018-12-24T01:09:14.672Z,1014.64
2018-12-24T01:09:15.270Z,1014.64
2018-12-24T01:09:15.913Z,1014.61
2018-12-24T01:10:12.384Z,1014.69
2018-12-24T01:10:12.985Z,1014.68
2018-12-24T01:10:13.583Z,1014.61
2018-12-24T01:11:07.578Z,1014.68
2018-12-24T01:11:08.175Z,1014.66
2018-12-24T01:11:08.775Z,1014.66
2018-12-24T01:11:09.374Z,1014.64
2018-12-24T01:11:09.975Z,1014.65
2018-12-24T01:11:10.574Z,1014.63
2018-12-24T01:11:11.175Z,1014.63
2018-12-24T01:12:05.233Z,1014.70
2018-12-24T01:12:05.827Z,1014.70
2018-12-24T01:12:06.427Z,1014.72
2018-12-24T01:12:07.026Z,1014.71
2018-12-24T01:12:07.628Z,1014.74
2018-12-24T01:12:08.225Z,1014.72
2018-12-24T01:12:08.826Z,1014.72
2018-12-24T01:13:02.907Z,1014.76
2018-12-24T01:13:03.481Z,1014.73
2018-12-24T01:13:04.077Z,1014.70
2018-12-24T01:13:04.679Z,1014.70
2018-12-24T01:13:05.278Z,1014.71
2018-12-24T01:13:05.877Z,1014.67
2018-12-24T01:13:06.478Z,1014.69
2018-12-24T01:14:00.534Z,1014.81
2018-12-24T01:14:01.131Z,1014.79
2018-12-24T01:14:01.732Z,1014.76
2018-12-24T01:14:02.330Z,1014.78
2018-12-24T01:14:02.929Z,1014.80
2018-12-24T01:14:03.530Z,1014.79
2018-12-24T01:14:04.129Z,1014.72
2018-12-24T01:14:58.183Z,1014.77
2018-12-24T01:14:58.782Z,1014.77
2018-12-24T01:14:59.383Z,1014.74
2018-12-24T01:14:59.981Z,1014.75
2018-12-24T01:15:00.583Z,1014.75
2018-12-24T01:15:01.189Z,1014.76
2018-12-24T01:15:01.781Z,1014.76
2018-12-24T01:15:55.836Z,1014.81
2018-12-24T01:15:56.434Z,1014.79
2018-12-24T01:15:57.033Z,1014.76
2018-12-24T01:15:57.633Z,1014.79
2018-12-24T01:15:58.233Z,1014.78
2018-12-24T01:15:58.833Z,1014.77
2018-12-24T01:15:59.433Z,1014.76
2018-12-24T01:16:53.489Z,1014.82
2018-12-24T01:16:54.085Z,1014.83
2018-12-24T01:16:54.688Z,1014.81
2018-12-24T01:16:55.286Z,1014.83
2018-12-24T01:16:55.885Z,1014.81
2018-12-24T01:16:56.483Z,1014.79
2018-12-24T01:16:57.085Z,1014.80
2018-12-24T01:17:51.172Z,1014.85
2018-12-24T01:17:51.738Z,1014.82
2018-12-24T01:17:52.339Z,1014.84
2018-12-24T01:17:52.936Z,1014.81
2018-12-24T01:17:53.536Z,1014.80
2018-12-24T01:17:54.138Z,1014.83
2018-12-24T01:17:54.735Z,1014.83
2018-12-24T01:18:48.816Z,1014.92
2018-12-24T01:18:49.388Z,1014.91
2018-12-24T01:18:49.988Z,1014.89
2018-12-24T01:18:50.590Z,1014.88
2018-12-24T01:18:51.190Z,1014.92
2018-12-24T01:18:51.788Z,1014.90
2018-12-24T01:18:52.388Z,1014.89
2018-12-24T01:19:46.444Z,1014.91
2018-12-24T01:19:47.041Z,1014.94
2018-12-24T01:19:47.640Z,1014.90
2018-12-24T01:19:48.241Z,1014.92
2018-12-24T01:19:48.840Z,1014.91
2018-12-24T01:19:49.440Z,1014.87
2018-12-24T01:19:50.040Z,1014.91
2018-12-24T01:20:44.095Z,1014.96
2018-12-24T01:20:44.691Z,1014.91
2018-12-24T01:20:45.292Z,1014.92
2018-12-24T01:20:45.894Z,1014.92
2018-12-24T01:20:46.491Z,1014.87
2018-12-24T01:20:47.092Z,1014.92
2018-12-24T01:20:47.692Z,1014.89
2018-12-24T01:21:41.746Z,1014.97
2018-12-24T01:21:42.344Z,1014.94
2018-12-24T01:21:42.943Z,1014.93
2018-12-24T01:21:43.544Z,1014.94
2018-12-24T01:21:44.216Z,1014.94
2018-12-24T01:21:44.743Z,1014.93
2018-12-24T01:21:45.343Z,1014.87
2018-12-24T01:22:39.398Z,1014.91
2018-12-24T01:22:39.996Z,1014.92
2018-12-24T01:22:40.602Z,1014.92
2018-12-24T01:22:41.195Z,1014.91
2018-12-24T01:22:41.795Z,1014.92
2018-12-24T01:22:42.395Z,1014.90
2018-12-24T01:22:42.998Z,1014.91
2018-12-24T01:23:37.085Z,1014.98
2018-12-24T01:23:37.647Z,1014.94
2018-12-24T01:23:38.247Z,1014.98
2018-12-24T01:23:38.847Z,1014.96
2018-12-24T01:23:39.455Z,1014.95
2018-12-24T01:23:40.046Z,1014.95
2018-12-24T01:23:40.645Z,1014.96
2018-12-24T01:24:34.702Z,1014.97
2018-12-24T01:24:35.298Z,1014.95
2018-12-24T01:24:35.898Z,1014.97
2018-12-24T01:24:36.498Z,1014.96
2018-12-24T01:24:37.097Z,1014.95
2018-12-24T01:24:37.698Z,1014.95
2018-12-24T01:24:38.299Z,1014.94
2018-12-24T01:25:32.353Z,1015.01
2018-12-24T01:25:32.950Z,1015.04
2018-12-24T01:25:33.551Z,1015.03
2018-12-24T01:25:34.150Z,1015.00
2018-12-24T01:25:34.748Z,1015.01
2018-12-24T01:25:35.354Z,1015.05
2018-12-24T01:25:35.959Z,1015.00
2018-12-24T01:26:30.005Z,1015.04
2018-12-24T01:26:30.604Z,1015.04
2018-12-24T01:26:31.205Z,1015.04
2018-12-24T01:26:31.803Z,1015.05
2018-12-24T01:26:32.404Z,1015.05
2018-12-24T01:26:33.003Z,1015.05
2018-12-24T01:26:33.603Z,1015.03
2018-12-24T01:27:27.657Z,1015.05
2018-12-24T01:27:28.255Z,1015.05
2018-12-24T01:27:28.854Z,1015.04
2018-12-24T01:27:29.475Z,1015.06
2018-12-24T01:27:30.051Z,1015.05
2018-12-24T01:27:30.651Z,1015.04
2018-12-24T01:27:31.250Z,1015.03
2018-12-24T01:28:25.309Z,1015.17
2018-12-24T01:28:25.905Z,1015.14
2018-12-24T01:28:26.508Z,1015.10
2018-12-24T01:28:27.105Z,1015.13
2018-12-24T01:28:27.705Z,1015.11
2018-12-24T01:28:28.306Z,1015.10
2018-12-24T01:28:28.905Z,1015.10
2018-12-24T01:29:22.993Z,1015.16
2018-12-24T01:29:23.558Z,1015.13
2018-12-24T01:29:24.157Z,1015.13
2018-12-24T01:29:24.758Z,1015.15
2018-12-24T01:29:25.363Z,1015.13
2018-12-24T01:29:25.956Z,1015.15
2018-12-24T01:29:26.556Z,1015.13
2018-12-24T01:30:20.612Z,1015.15
2018-12-24T01:30:21.209Z,1015.11
2018-12-24T01:30:21.808Z,1015.15
2018-12-24T01:30:22.408Z,1015.11
2018-12-24T01:30:23.011Z,1015.13
2018-12-24T01:30:23.638Z,1015.14
2018-12-24T01:30:24.209Z,1015.09
2018-12-24T01:31:20.720Z,1015.12
2018-12-24T01:31:21.318Z,1015.13
2018-12-24T01:31:21.918Z,1015.13
2018-12-24T01:32:15.914Z,1015.18
2018-12-24T01:32:16.512Z,1015.16
2018-12-24T01:32:17.113Z,1015.20
2018-12-24T01:32:17.713Z,1015.09
2018-12-24T01:32:18.313Z,1015.14
2018-12-24T01:32:18.910Z,1015.16
2018-12-24T01:32:19.512Z,1015.12
2018-12-24T01:33:13.567Z,1015.22
2018-12-24T01:33:14.166Z,1015.19
2018-12-24T01:33:14.765Z,1015.19
2018-12-24T01:33:15.363Z,1015.18
2018-12-24T01:33:15.963Z,1015.18
2018-12-24T01:33:16.564Z,1015.15
2018-12-24T01:33:17.170Z,1015.19
2018-12-24T01:34:11.219Z,1015.20
2018-12-24T01:34:11.920Z,1015.20
2018-12-24T01:34:12.414Z,1015.19
2018-12-24T01:34:13.014Z,1015.18
2018-12-24T01:34:13.615Z,1015.19
2018-12-24T01:34:14.217Z,1015.17
2018-12-24T01:34:14.815Z,1015.16
2018-12-24T01:35:08.904Z,1015.22
2018-12-24T01:35:09.468Z,1015.17
2018-12-24T01:35:10.066Z,1015.19
2018-12-24T01:35:10.667Z,1015.19
2018-12-24T01:35:11.266Z,1015.17
2018-12-24T01:35:11.870Z,1015.17
2018-12-24T01:35:12.466Z,1015.19
2018-12-24T01:36:06.523Z,1015.24
2018-12-24T01:36:07.121Z,1015.20
2018-12-24T01:36:07.718Z,1015.22
2018-12-24T01:36:08.319Z,1015.19
2018-12-24T01:36:08.917Z,1015.18
2018-12-24T01:36:09.522Z,1015.21
2018-12-24T01:36:10.119Z,1015.17
2018-12-24T01:37:04.174Z,1015.23
2018-12-24T01:37:04.771Z,1015.29
2018-12-24T01:37:05.370Z,1015.21
2018-12-24T01:37:05.973Z,1015.28
2018-12-24T01:37:06.570Z,1015.26
2018-12-24T01:37:07.176Z,1015.25
2018-12-24T01:37:07.769Z,1015.28
2018-12-24T01:38:01.827Z,1015.24
2018-12-24T01:38:02.423Z,1015.23
2018-12-24T01:38:03.044Z,1015.22
2018-12-24T01:38:03.620Z,1015.21
2018-12-24T01:38:04.221Z,1015.20
2018-12-24T01:38:04.820Z,1015.22
2018-12-24T01:38:05.418Z,1015.23
2018-12-24T01:38:59.480Z,1015.20
2018-12-24T01:39:00.073Z,1015.20
2018-12-24T01:39:00.673Z,1015.20
2018-12-24T01:39:01.274Z,1015.23
2018-12-24T01:39:01.875Z,1015.21
2018-12-24T01:39:02.478Z,1015.20
2018-12-24T01:39:03.073Z,1015.20
2018-12-24T01:39:57.131Z,1015.26
2018-12-24T01:39:57.725Z,1015.27
2018-12-24T01:39:58.326Z,1015.21
2018-12-24T01:39:58.925Z,1015.23
2018-12-24T01:39:59.524Z,1015.26
2018-12-24T01:40:00.174Z,1015.27
2018-12-24T01:40:00.725Z,1015.22
2018-12-24T01:40:54.811Z,1015.28
2018-12-24T01:40:55.381Z,1015.26
2018-12-24T01:40:55.978Z,1015.24
2018-12-24T01:40:56.578Z,1015.25
2018-12-24T01:40:57.178Z,1015.26
2018-12-24T01:40:57.779Z,1015.26
2018-12-24T01:40:58.377Z,1015.24
2018-12-24T01:41:52.436Z,1015.30
2018-12-24T01:41:53.029Z,1015.32
2018-12-24T01:41:53.630Z,1015.30
2018-12-24T01:41:54.228Z,1015.30
2018-12-24T01:41:54.829Z,1015.32
2018-12-24T01:41:55.431Z,1015.30
2018-12-24T01:41:56.028Z,1015.32
2018-12-24T01:42:50.090Z,1015.34
2018-12-24T01:42:50.680Z,1015.30
2018-12-24T01:42:51.280Z,1015.34
2018-12-24T01:42:51.887Z,1015.37
2018-12-24T01:42:52.480Z,1015.30
2018-12-24T01:42:53.080Z,1015.33
2018-12-24T01:42:53.680Z,1015.32
2018-12-24T01:43:47.745Z,1015.41
2018-12-24T01:43:48.333Z,1015.39
2018-12-24T01:43:48.934Z,1015.34
2018-12-24T01:43:49.534Z,1015.34
2018-12-24T01:43:50.132Z,1015.37
2018-12-24T01:43:50.734Z,1015.41
2018-12-24T01:43:51.334Z,1015.38
2018-12-24T01:44:45.387Z,1015.46
2018-12-24T01:44:45.984Z,1015.45
2018-12-24T01:44:46.585Z,1015.45
2018-12-24T01:44:47.183Z,1015.44
2018-12-24T01:44:47.784Z,1015.45
2018-12-24T01:44:48.384Z,1015.46
2018-12-24T01:44:48.997Z,1015.47
2018-12-24T01:45:43.039Z,1015.52
2018-12-24T01:45:43.636Z,1015.48
2018-12-24T01:45:44.237Z,1015.47
2018-12-24T01:45:44.837Z,1015.45
2018-12-24T01:45:45.435Z,1015.48
2018-12-24T01:45:46.037Z,1015.49
2018-12-24T01:45:46.637Z,1015.44
2018-12-24T01:46:40.728Z,1015.49
2018-12-24T01:46:41.289Z,1015.50
2018-12-24T01:46:41.887Z,1015.50
2018-12-24T01:46:42.489Z,1015.50
2018-12-24T01:46:43.087Z,1015.50
2018-12-24T01:46:43.687Z,1015.51
2018-12-24T01:46:44.286Z,1015.51
2018-12-24T01:47:38.341Z,1015.55
2018-12-24T01:47:38.939Z,1015.53
2018-12-24T01:47:39.539Z,1015.54
2018-12-24T01:47:40.139Z,1015.57
2018-12-24T01:47:40.743Z,1015.54
2018-12-24T01:47:41.339Z,1015.54
2018-12-24T01:47:41.940Z,1015.56
2018-12-24T01:48:35.995Z,1015.56
2018-12-24T01:48:36.591Z,1015.56
2018-12-24T01:48:37.191Z,1015.54
2018-12-24T01:48:37.791Z,1015.52
2018-12-24T01:48:38.390Z,1015.54
2018-12-24T01:48:38.992Z,1015.55
2018-12-24T01:48:39.590Z,1015.53
2018-12-24T01:49:33.649Z,1015.58
2018-12-24T01:49:34.242Z,1015.58
2018-12-24T01:49:34.843Z,1015.57
2018-12-24T01:49:35.442Z,1015.56
2018-12-24T01:49:36.042Z,1015.55
2018-12-24T01:49:36.643Z,1015.56
2018-12-24T01:49:37.242Z,1015.53
2018-12-24T01:50:31.297Z,1015.55
2018-12-24T01:50:31.894Z,1015.56
2018-12-24T01:50:32.494Z,1015.60
2018-12-24T01:50:33.094Z,1015.60
2018-12-24T01:50:33.693Z,1015.59
2018-12-24T01:50:34.294Z,1015.59
2018-12-24T01:50:34.896Z,1015.59
2018-12-24T01:51:28.949Z,1015.59
2018-12-24T01:51:29.545Z,1015.57
2018-12-24T01:51:30.145Z,1015.60
2018-12-24T01:51:30.746Z,1015.60
2018-12-24T01:51:31.345Z,1015.58
2018-12-24T01:51:31.945Z,1015.57
2018-12-24T01:51:32.545Z,1015.62
2018-12-24T01:52:26.632Z,1015.69
2018-12-24T01:52:27.198Z,1015.63
2018-12-24T01:52:27.797Z,1015.64
2018-12-24T01:52:28.396Z,1015.64
2018-12-24T01:52:28.996Z,1015.65
2018-12-24T01:52:29.597Z,1015.64
2018-12-24T01:52:30.200Z,1015.61
2018-12-24T01:53:24.256Z,1015.67
2018-12-24T01:53:24.869Z,1015.66
2018-12-24T01:53:25.449Z,1015.65
2018-12-24T01:53:26.050Z,1015.64
2018-12-24T01:53:26.649Z,1015.60
2018-12-24T01:53:27.248Z,1015.68
2018-12-24T01:53:27.847Z,1015.69
2018-12-24T01:54:21.904Z,1015.70
2018-12-24T01:54:22.501Z,1015.68
2018-12-24T01:54:23.100Z,1015.67
2018-12-24T01:54:23.700Z,1015.68
2018-12-24T01:54:24.300Z,1015.63
2018-12-24T01:54:24.900Z,1015.67
2018-12-24T01:54:25.507Z,1015.67
2018-12-24T01:55:19.555Z,1015.70
2018-12-24T01:55:20.153Z,1015.69
2018-12-24T01:55:20.753Z,1015.73
2018-12-24T01:55:21.352Z,1015.69
2018-12-24T01:55:21.952Z,1015.71
2018-12-24T01:55:22.554Z,1015.72
2018-12-24T01:55:23.252Z,1015.70
2018-12-24T01:56:17.208Z,1015.76
2018-12-24T01:56:17.806Z,1015.77
2018-12-24T01:56:18.405Z,1015.77
2018-12-24T01:56:19.004Z,1015.78
2018-12-24T01:56:19.604Z,1015.78
2018-12-24T01:56:20.206Z,1015.76
2018-12-24T01:56:20.804Z,1015.79
2018-12-24T01:57:14.860Z,1015.74
2018-12-24T01:57:15.457Z,1015.72
2018-12-24T01:57:16.056Z,1015.74
2018-12-24T01:57:16.656Z,1015.73
2018-12-24T01:57:17.256Z,1015.70
2018-12-24T01:57:17.856Z,1015.74
2018-12-24T01:57:18.458Z,1015.69
2018-12-24T01:58:12.534Z,1015.76
2018-12-24T01:58:13.108Z,1015.77
2018-12-24T01:58:13.707Z,1015.75
2018-12-24T01:58:14.307Z,1015.75
2018-12-24T01:58:14.907Z,1015.77
2018-12-24T01:58:15.511Z,1015.73
2018-12-24T01:58:16.114Z,1015.71
2018-12-24T01:59:10.164Z,1015.77
2018-12-24T01:59:10.759Z,1015.76
2018-12-24T01:59:11.359Z,1015.74
2018-12-24T01:59:11.960Z,1015.78
2018-12-24T01:59:12.564Z,1015.78
2018-12-24T01:59:13.159Z,1015.75
2018-12-24T01:59:13.758Z,1015.74
2018-12-24T02:00:07.814Z,1015.86
2018-12-24T02:00:08.413Z,1015.82
2018-12-24T02:00:09.012Z,1015.81
2018-12-24T02:00:09.610Z,1015.79
2018-12-24T02:00:10.211Z,1015.80
2018-12-24T02:00:10.811Z,1015.83
2018-12-24T02:00:11.410Z,1015.82
2018-12-24T02:01:05.465Z,1015.85
2018-12-24T02:01:06.063Z,1015.83
2018-12-24T02:01:06.662Z,1015.80
2018-12-24T02:01:07.263Z,1015.83
2018-12-24T02:01:07.863Z,1015.84
2018-12-24T02:01:08.462Z,1015.84
2018-12-24T02:01:09.062Z,1015.85
2018-12-24T02:02:03.116Z,1015.85
2018-12-24T02:02:03.714Z,1015.88
2018-12-24T02:02:04.313Z,1015.85
2018-12-24T02:02:04.922Z,1015.83
2018-12-24T02:02:05.514Z,1015.85
2018-12-24T02:02:06.114Z,1015.88
2018-12-24T02:02:06.714Z,1015.80
2018-12-24T02:03:00.803Z,1015.87
2018-12-24T02:03:01.368Z,1015.85
2018-12-24T02:03:01.966Z,1015.86
2018-12-24T02:03:02.567Z,1015.86
2018-12-24T02:03:03.167Z,1015.85
2018-12-24T02:03:03.765Z,1015.88
2018-12-24T02:03:04.365Z,1015.88
2018-12-24T02:03:58.421Z,1015.94
2018-12-24T02:03:59.018Z,1015.93
2018-12-24T02:03:59.617Z,1015.87
2018-12-24T02:04:00.217Z,1015.90
2018-12-24T02:04:00.819Z,1015.89
2018-12-24T02:04:01.417Z,1015.90
2018-12-24T02:04:02.017Z,1015.90
2018-12-24T02:04:56.072Z,1015.93
2018-12-24T02:04:56.670Z,1015.95
2018-12-24T02:04:57.269Z,1015.92
2018-12-24T02:04:57.874Z,1015.89
2018-12-24T02:04:58.470Z,1015.90
2018-12-24T02:04:59.070Z,1015.91
2018-12-24T02:04:59.668Z,1015.91
2018-12-24T02:05:53.726Z,1015.98
2018-12-24T02:05:54.321Z,1015.97
2018-12-24T02:05:54.919Z,1015.96
2018-12-24T02:05:55.521Z,1015.98
2018-12-24T02:05:56.120Z,1015.91
2018-12-24T02:05:56.720Z,1015.96
2018-12-24T02:05:57.324Z,1015.97
2018-12-24T02:06:51.376Z,1015.95
2018-12-24T02:06:51.973Z,1015.99
2018-12-24T02:06:52.573Z,1015.96
2018-12-24T02:06:53.172Z,1015.96
2018-12-24T02:06:53.772Z,1015.96
2018-12-24T02:06:54.376Z,1015.91
2018-12-24T02:06:54.974Z,1015.95
2018-12-24T02:07:49.028Z,1015.99
2018-12-24T02:07:49.628Z,1016.00
2018-12-24T02:07:50.224Z,1016.01
2018-12-24T02:07:50.823Z,1015.97
2018-12-24T02:07:51.422Z,1015.99
2018-12-24T02:07:52.024Z,1015.99
2018-12-24T02:07:52.623Z,1015.95
2018-12-24T02:08:46.706Z,1015.98